createdAt,value
2023-01-02T00:01:30.838Z,58.70
2023-01-02T00:04:23.350Z,58.60
2023-01-02T00:07:16.630Z,58.80
2023-01-02T00:10:09.946Z,58.90
2023-01-02T00:13:04.232Z,59.00
2023-01-02T00:15:57.530Z,59.40
2023-01-02T00:18:51.933Z,59.10
2023-01-02T00:21:44.579Z,59.30
2023-01-02T00:24:37.940Z,59.50
2023-01-02T00:27:30.821Z,59.30
2023-01-02T00:30:24.131Z,59.30
2023-01-02T00:33:28.260Z,59.70
2023-01-02T00:36:23.508Z,59.50
2023-01-02T00:39:16.482Z,59.40
2023-01-02T00:42:09.904Z,60.20
2023-01-02T00:45:02.893Z,59.90
2023-01-02T00:47:55.419Z,59.80
2023-01-02T00:50:48.922Z,60.30
2023-01-02T00:53:43.150Z,60.40
2023-01-02T00:56:36.800Z,61.50
2023-01-02T00:59:29.677Z,61.60
2023-01-02T01:02:22.358Z,61.60
2023-01-02T01:05:15.564Z,61.90
2023-01-02T01:08:08.929Z,62.20
2023-01-02T01:11:08.228Z,62.40
2023-01-02T01:14:01.793Z,62.00
2023-01-02T01:16:54.807Z,61.90
2023-01-02T01:19:47.542Z,61.90
2023-01-02T01:22:40.694Z,62.60
2023-01-02T01:25:33.294Z,61.90
2023-01-02T01:28:28.086Z,61.50
2023-01-02T01:31:22.047Z,61.40
2023-01-02T01:34:16.521Z,61.70
2023-01-02T01:37:09.641Z,61.40
2023-01-02T01:40:02.760Z,61.80
2023-01-02T01:43:00.764Z,62.00
2023-01-02T01:45:55.895Z,61.90
2023-01-02T01:48:50.203Z,62.00
2023-01-02T01:51:50.759Z,61.00
2023-01-02T01:54:47.908Z,61.80
2023-01-02T01:57:45.054Z,62.20
2023-01-02T02:00:41.532Z,61.30
2023-01-02T02:03:37.523Z,61.50
2023-01-02T02:06:31.124Z,61.30
2023-01-02T02:09:31.100Z,61.40
2023-01-02T02:12:28.222Z,61.10
2023-01-02T02:15:25.069Z,60.70
2023-01-02T02:18:34.760Z,63.00
2023-01-02T02:21:59.923Z,61.40
2023-01-02T02:25:17.217Z,61.20
2023-01-02T02:28:50.789Z,61.20
2023-01-02T02:31:52.003Z,60.80
2023-01-02T02:34:53.442Z,61.00
2023-01-02T02:37:54.257Z,61.50
2023-01-02T02:40:57.021Z,61.60
2023-01-02T02:44:03.381Z,61.10
2023-01-02T02:47:03.988Z,61.20
2023-01-02T02:50:04.122Z,61.30
2023-01-02T02:53:02.885Z,60.90
2023-01-02T02:55:59.357Z,61.30
2023-01-02T02:58:53.756Z,60.70
2023-01-02T03:01:46.890Z,60.20
2023-01-02T03:04:40.942Z,60.40
2023-01-02T03:07:39.861Z,60.70
2023-01-02T03:10:41.521Z,60.60
2023-01-02T03:13:42.604Z,60.50
2023-01-02T03:16:40.988Z,61.00
2023-01-02T03:19:39.331Z,61.20
2023-01-02T03:22:37.660Z,61.50
2023-01-02T03:25:32.757Z,61.20
2023-01-02T03:28:27.995Z,61.30
2023-01-02T03:31:22.229Z,61.40
2023-01-02T03:34:18.904Z,63.10
2023-01-02T03:37:15.572Z,62.30
2023-01-02T03:40:15.624Z,63.60
2023-01-02T03:43:12.185Z,62.40
2023-01-02T03:46:13.460Z,61.90
2023-01-02T03:49:09.571Z,62.20
2023-01-02T03:52:03.069Z,61.80
2023-01-02T03:54:57.421Z,62.10
2023-01-02T03:58:03.198Z,62.00
2023-01-02T04:01:05.455Z,61.80
2023-01-02T04:04:05.067Z,62.00
2023-01-02T04:07:02.983Z,61.40
2023-01-02T04:09:56.985Z,61.50
2023-01-02T04:12:54.691Z,61.30
2023-01-02T04:15:50.154Z,61.50
2023-01-02T04:18:47.375Z,62.20
2023-01-02T04:21:42.724Z,63.20
2023-01-02T04:24:41.128Z,62.10
2023-01-02T04:27:37.473Z,62.40
2023-01-02T04:30:33.970Z,61.70
2023-01-02T04:33:29.077Z,62.10
2023-01-02T04:36:23.039Z,62.00
2023-01-02T04:39:15.955Z,62.40
2023-01-02T04:42:08.780Z,61.90
2023-01-02T04:45:01.839Z,61.90
2023-01-02T04:47:56.130Z,61.70
2023-01-02T04:50:49.270Z,61.80
2023-01-02T04:53:43.181Z,61.60
2023-01-02T04:56:36.966Z,61.60
2023-01-02T04:59:30.018Z,61.40
2023-01-02T05:02:22.691Z,61.80
2023-01-02T05:05:17.075Z,61.70
2023-01-02T05:08:15.832Z,61.50
2023-01-02T05:11:11.696Z,61.50
2023-01-02T05:14:07.592Z,61.40
2023-01-02T05:17:00.812Z,62.70
2023-01-02T05:19:54.022Z,62.20
2023-01-02T05:23:05.633Z,62.30
2023-01-02T05:25:58.575Z,63.00
2023-01-02T05:28:53.866Z,64.20
2023-01-02T05:31:46.527Z,64.90
2023-01-02T05:34:39.811Z,63.20
2023-01-02T05:37:32.758Z,63.00
2023-01-02T05:40:27.456Z,62.80
2023-01-02T05:43:20.666Z,62.50
2023-01-02T05:46:15.831Z,62.50
2023-01-02T05:49:10.526Z,62.20
2023-01-02T05:52:13.326Z,62.30
2023-01-02T05:55:07.184Z,62.40
2023-01-02T05:58:02.322Z,63.30
2023-01-02T06:00:55.266Z,63.60
2023-01-02T06:03:50.362Z,62.80
2023-01-02T06:06:43.360Z,62.90
2023-01-02T06:09:37.789Z,62.80
2023-01-02T06:12:31.051Z,63.10
2023-01-02T06:15:24.737Z,63.40
2023-01-02T06:18:17.658Z,62.80
2023-01-02T06:21:12.969Z,63.30
2023-01-02T06:24:07.066Z,62.80
2023-01-02T06:27:01.550Z,62.90
2023-01-02T06:29:54.272Z,63.10
2023-01-02T06:32:47.363Z,62.90
2023-01-02T06:35:40.502Z,63.00
2023-01-02T06:38:33.684Z,63.10
2023-01-02T06:41:26.625Z,62.90
2023-01-02T06:44:21.077Z,63.60
2023-01-02T06:47:14.893Z,62.80
2023-01-02T06:50:08.544Z,63.00
2023-01-02T06:53:01.713Z,62.80
2023-01-02T06:55:55.764Z,62.80
2023-01-02T06:58:49.090Z,62.80
2023-01-02T07:01:44.331Z,62.80
2023-01-02T07:04:37.833Z,63.60
2023-01-02T07:07:30.649Z,62.80
2023-01-02T07:10:24.028Z,62.90
2023-01-02T07:13:17.581Z,62.90
2023-01-02T07:16:13.111Z,62.90
2023-01-02T07:19:07.699Z,62.80
2023-01-02T07:22:00.685Z,62.80
2023-01-02T07:24:53.541Z,62.80
2023-01-02T07:27:47.026Z,62.80
2023-01-02T07:30:40.621Z,62.80
2023-01-02T07:33:34.576Z,62.80
2023-01-02T07:36:29.200Z,63.00
2023-01-02T07:39:23.658Z,62.80
2023-01-02T07:42:16.640Z,62.80
2023-01-02T07:45:10.955Z,62.80
2023-01-02T07:48:03.817Z,62.90
2023-01-02T07:51:01.103Z,63.00
2023-01-02T07:53:56.124Z,63.00
2023-01-02T07:56:49.424Z,63.10
2023-01-02T07:59:44.845Z,63.10
2023-01-02T08:02:37.623Z,63.20
2023-01-02T08:05:30.714Z,63.20
2023-01-02T08:08:23.585Z,63.70
2023-01-02T08:11:20.199Z,63.60
2023-01-02T08:14:18.342Z,63.60
2023-01-02T08:17:14.664Z,63.40
2023-01-02T08:20:09.423Z,63.30
2023-01-02T08:23:02.857Z,63.30
2023-01-02T08:25:59.231Z,63.20
2023-01-02T08:28:54.050Z,63.20
2023-01-02T08:31:46.692Z,63.10
2023-01-02T08:34:40.102Z,63.10
2023-01-02T08:37:34.067Z,63.10
2023-01-02T08:40:27.851Z,63.00
2023-01-02T08:43:20.479Z,63.10
2023-01-02T08:46:15.387Z,63.10
2023-01-02T08:49:08.530Z,63.10
2023-01-02T08:52:01.975Z,63.10
2023-01-02T08:54:54.833Z,63.10
2023-01-02T08:57:47.521Z,63.10
2023-01-02T09:00:40.539Z,63.20
2023-01-02T09:03:34.680Z,63.90
2023-01-02T09:06:31.128Z,63.10
2023-01-02T09:09:24.886Z,63.10
2023-01-02T09:12:18.004Z,63.10
2023-01-02T09:15:11.732Z,63.00
2023-01-02T09:18:05.028Z,63.00
2023-01-02T09:20:59.134Z,63.00
2023-01-02T09:23:52.914Z,63.00
2023-01-02T09:26:45.548Z,63.00
2023-01-02T09:29:39.051Z,63.10
2023-01-02T09:32:31.858Z,63.20
2023-01-02T09:35:24.710Z,63.30
2023-01-02T09:38:19.219Z,63.30
2023-01-02T09:41:26.342Z,64.10
2023-01-02T09:44:23.265Z,67.60
2023-01-02T09:47:20.437Z,66.30
2023-01-02T09:50:17.373Z,68.70
2023-01-02T09:53:12.824Z,67.40
2023-01-02T09:56:19.320Z,66.70
2023-01-02T09:59:20.390Z,66.40
2023-01-02T10:02:28.696Z,66.20
2023-01-02T10:05:42.880Z,66.10
2023-01-02T10:08:43.196Z,65.90
2023-01-02T10:11:46.692Z,65.90
2023-01-02T10:14:53.446Z,65.70
2023-01-02T10:17:52.845Z,65.50
2023-01-02T10:20:53.533Z,65.50
2023-01-02T10:23:50.815Z,65.50
2023-01-02T10:26:50.413Z,66.20
2023-01-02T10:29:49.776Z,65.50
2023-01-02T10:32:45.083Z,65.20
2023-01-02T10:35:42.811Z,65.40
2023-01-02T10:38:39.146Z,66.00
2023-01-02T10:41:33.164Z,65.70
2023-01-02T10:44:32.151Z,65.50
2023-01-02T10:47:33.244Z,65.80
2023-01-02T10:50:30.243Z,66.10
2023-01-02T10:53:30.982Z,65.30
2023-01-02T10:56:24.038Z,65.70
2023-01-02T10:59:22.084Z,65.30
2023-01-02T11:02:28.189Z,67.00
2023-01-02T11:05:23.831Z,65.70
2023-01-02T11:08:19.683Z,65.50
2023-01-02T11:11:17.966Z,65.50
2023-01-02T11:14:11.571Z,66.50
2023-01-02T11:17:07.697Z,66.00
2023-01-02T11:20:02.321Z,67.00
2023-01-02T11:22:58.038Z,65.40
2023-01-02T11:25:51.585Z,65.50
2023-01-02T11:28:44.818Z,66.10
2023-01-02T11:31:44.217Z,65.60
2023-01-02T11:34:40.063Z,65.10
2023-01-02T11:37:34.976Z,65.10
2023-01-02T11:40:30.885Z,65.20
2023-01-02T11:43:47.170Z,65.10
2023-01-02T11:46:40.576Z,65.10
2023-01-02T11:49:40.839Z,66.00
2023-01-02T11:52:42.990Z,64.80
2023-01-02T11:55:42.269Z,65.40
2023-01-02T11:58:43.757Z,65.70
2023-01-02T12:01:47.330Z,67.50
2023-01-02T12:04:40.943Z,67.40
2023-01-02T12:07:44.281Z,67.20
2023-01-02T12:10:50.753Z,67.10
2023-01-02T12:13:56.955Z,66.90
2023-01-02T12:16:57.499Z,67.10
2023-01-02T12:20:07.794Z,64.10
2023-01-02T12:23:33.479Z,61.90
2023-01-02T12:26:31.892Z,62.50
2023-01-02T12:29:47.669Z,63.00
2023-01-02T12:33:07.815Z,63.30
2023-01-02T12:36:19.716Z,63.60
2023-01-02T12:39:28.303Z,63.60
2023-01-02T12:42:40.226Z,63.80
2023-01-02T12:45:40.357Z,63.60
2023-01-02T12:48:49.073Z,63.60
2023-01-02T12:51:49.211Z,63.60
2023-01-02T12:54:55.459Z,63.60
2023-01-02T12:57:55.986Z,63.60
2023-01-02T13:01:01.636Z,64.10
2023-01-02T13:04:06.358Z,63.90
2023-01-02T13:07:04.505Z,63.50
2023-01-02T13:10:04.200Z,63.60
2023-01-02T13:12:59.944Z,63.60
2023-01-02T13:16:03.466Z,63.60
2023-01-02T13:19:06.763Z,63.70
2023-01-02T13:22:09.130Z,63.70
2023-01-02T13:25:04.277Z,63.80
2023-01-02T13:27:59.007Z,63.70
2023-01-02T13:31:35.481Z,63.60
2023-01-02T13:34:22.142Z,63.60
2023-01-02T13:37:20.935Z,62.40
2023-01-02T13:40:32.776Z,62.90
2023-01-02T13:43:30.605Z,63.10
2023-01-02T13:47:02.079Z,63.50
2023-01-02T13:49:43.149Z,63.60
2023-01-02T13:52:35.819Z,63.90
2023-01-02T13:55:32.715Z,64.00
2023-01-02T13:58:42.126Z,64.20
2023-01-02T14:02:03.530Z,64.40
2023-01-02T14:04:56.945Z,64.60
2023-01-02T14:07:50.245Z,64.80
2023-01-02T14:10:46.199Z,64.90
2023-01-02T14:13:41.966Z,64.90
2023-01-02T14:17:02.934Z,65.10
2023-01-02T14:20:24.445Z,64.80
2023-01-02T14:23:27.550Z,65.40
2023-01-02T14:26:28.555Z,65.50
2023-01-02T14:29:23.938Z,65.00
2023-01-02T14:32:22.617Z,64.80
2023-01-02T14:35:31.114Z,64.60
2023-01-02T14:38:25.530Z,64.50
2023-01-02T14:42:24.754Z,64.60
2023-01-02T14:45:23.656Z,64.70
2023-01-02T14:48:22.951Z,65.50
2023-01-02T14:51:24.518Z,64.60
2023-01-02T14:54:20.681Z,64.70
2023-01-02T14:57:26.511Z,64.90
2023-01-02T15:00:28.340Z,64.80
2023-01-02T15:03:28.091Z,64.70
2023-01-02T15:06:29.909Z,64.60
2023-01-02T15:09:30.408Z,64.60
2023-01-02T15:12:45.224Z,64.70
2023-01-02T15:15:41.924Z,64.60
2023-01-02T15:18:36.321Z,64.50
2023-01-02T15:21:31.622Z,64.60
2023-01-02T15:24:28.109Z,64.60
2023-01-02T15:27:26.213Z,64.60
2023-01-02T15:30:24.161Z,64.70
2023-01-02T15:33:27.730Z,64.80
2023-01-02T15:36:33.745Z,65.10
2023-01-02T15:39:33.632Z,65.30
2023-01-02T15:42:46.946Z,65.40
2023-01-02T15:45:45.009Z,65.30
2023-01-02T15:48:39.243Z,65.70
2023-01-02T15:51:41.443Z,65.70
2023-01-02T15:54:37.381Z,66.00
2023-01-02T15:57:32.968Z,66.10
2023-01-02T16:00:44.833Z,66.20
2023-01-02T16:04:00.733Z,66.20
2023-01-02T16:06:54.709Z,66.20
2023-01-02T16:09:55.181Z,66.10
2023-01-02T16:12:54.688Z,66.00
2023-01-02T16:15:47.900Z,66.00
2023-01-02T16:19:01.924Z,66.10
2023-01-02T16:22:08.088Z,66.10
2023-01-02T16:25:07.928Z,66.30
2023-01-02T16:28:35.716Z,66.10
2023-01-02T16:31:22.636Z,66.80
2023-01-02T16:34:25.579Z,65.90
2023-01-02T16:37:35.525Z,66.00
2023-01-02T16:41:00.646Z,65.90
2023-01-02T16:43:57.638Z,65.90
2023-01-02T16:46:51.785Z,66.00
2023-01-02T16:49:45.479Z,65.80
2023-01-02T16:52:39.438Z,65.80
2023-01-02T16:55:32.239Z,65.70
2023-01-02T16:58:25.493Z,65.70
2023-01-02T17:01:21.620Z,65.70
2023-01-02T17:04:16.111Z,65.70
2023-01-02T17:07:10.852Z,66.40
2023-01-02T17:10:04.395Z,65.60
2023-01-02T17:12:58.038Z,65.70
2023-01-02T17:15:51.589Z,65.60
2023-01-02T17:18:46.940Z,65.60
2023-01-02T17:21:40.030Z,65.60
2023-01-02T17:24:33.227Z,65.60
2023-01-02T17:27:26.080Z,65.70
2023-01-02T17:30:19.478Z,65.60
2023-01-02T17:33:12.155Z,65.70
2023-01-02T17:36:07.128Z,65.90
2023-01-02T17:39:00.229Z,65.80
2023-01-02T17:41:53.260Z,65.80
2023-01-02T17:44:46.191Z,65.80
2023-01-02T17:48:00.682Z,66.00
2023-01-02T17:50:52.503Z,65.90
2023-01-02T17:53:47.831Z,65.90
2023-01-02T17:56:41.389Z,65.90
2023-01-02T17:59:34.521Z,65.80
2023-01-02T18:02:27.914Z,66.00
2023-01-02T18:05:21.798Z,65.80
2023-01-02T18:08:16.410Z,66.00
2023-01-02T18:11:12.630Z,65.90
2023-01-02T18:14:14.390Z,65.90
2023-01-02T18:17:15.043Z,66.00
2023-01-02T18:20:12.603Z,66.00
2023-01-02T18:23:13.741Z,66.00
2023-01-02T18:26:12.802Z,65.90
2023-01-02T18:29:14.731Z,66.00
2023-01-02T18:32:16.010Z,66.00
2023-01-02T18:35:54.879Z,65.80
2023-01-02T18:38:31.971Z,65.80
2023-01-02T18:41:27.694Z,66.10
2023-01-02T18:44:24.195Z,66.10
2023-01-02T18:47:25.918Z,66.10
2023-01-02T18:50:37.897Z,66.10
2023-01-02T18:53:44.067Z,65.50
2023-01-02T18:56:38.545Z,66.10
2023-01-02T18:59:33.112Z,66.00
2023-01-02T19:02:39.912Z,66.00
2023-01-02T19:05:35.144Z,66.00
2023-01-02T19:08:38.426Z,65.80
2023-01-02T19:12:06.344Z,65.70
2023-01-02T19:15:01.787Z,65.60
2023-01-02T19:17:55.354Z,65.60
2023-01-02T19:20:50.568Z,65.60
2023-01-02T19:23:53.854Z,65.70
2023-01-02T19:26:48.825Z,65.80
2023-01-02T19:29:44.420Z,65.60
2023-01-02T19:32:38.404Z,65.40
2023-01-02T19:35:56.494Z,65.50
2023-01-02T19:38:51.639Z,65.60
2023-01-02T19:42:02.419Z,65.60
2023-01-02T19:44:57.675Z,65.60
2023-01-02T19:47:53.932Z,65.50
2023-01-02T19:50:47.393Z,65.40
2023-01-02T19:53:40.506Z,65.50
2023-01-02T19:56:33.470Z,65.50
2023-01-02T19:59:26.446Z,65.50
2023-01-02T20:02:21.294Z,65.40
2023-01-02T20:05:20.992Z,66.30
2023-01-02T20:08:14.242Z,65.60
2023-01-02T20:11:27.471Z,66.40
2023-01-02T20:14:20.388Z,65.60
2023-01-02T20:17:13.203Z,65.50
2023-01-02T20:20:08.387Z,65.50
2023-01-02T20:23:03.030Z,65.50
2023-01-02T20:25:56.266Z,65.50
2023-01-02T20:28:49.576Z,65.50
2023-01-02T20:31:42.356Z,65.60
2023-01-02T20:34:35.498Z,65.80
2023-01-02T20:37:28.553Z,65.80
2023-01-02T20:40:22.589Z,65.70
2023-01-02T20:43:15.394Z,65.60
2023-01-02T20:46:08.773Z,65.70
2023-01-02T20:49:02.813Z,65.90
2023-01-02T20:51:56.628Z,65.80
2023-01-02T20:57:51.475Z,65.70
2023-01-02T21:00:46.084Z,65.80
2023-01-02T21:03:39.182Z,65.70
2023-01-02T21:06:32.401Z,65.70
2023-01-02T21:09:25.571Z,65.50
2023-01-02T21:12:36.319Z,65.60
2023-01-02T21:18:53.158Z,65.50
2023-01-02T21:21:46.279Z,65.50
2023-01-02T21:24:39.625Z,65.70
2023-01-02T21:27:32.520Z,65.80
2023-01-02T21:30:25.859Z,65.80
2023-01-02T21:33:22.586Z,65.60
2023-01-02T21:36:16.446Z,66.60
2023-01-02T21:39:09.569Z,65.70
2023-01-02T21:42:18.058Z,65.90
2023-01-02T21:45:11.895Z,65.80
2023-01-02T21:48:06.867Z,65.90
2023-01-02T21:51:01.924Z,65.70
2023-01-02T21:53:55.545Z,65.90
2023-01-02T21:56:48.480Z,65.90
2023-01-02T21:59:41.550Z,66.10
2023-01-02T22:02:38.657Z,65.90
2023-01-02T22:05:32.064Z,65.90
2023-01-02T22:08:26.740Z,65.80
2023-01-02T22:11:37.996Z,65.90
2023-01-02T22:14:33.326Z,65.80
2023-01-02T22:17:26.648Z,65.90
2023-01-02T22:20:20.269Z,66.00
2023-01-02T22:23:13.375Z,65.90
2023-01-02T22:26:08.089Z,66.00
2023-01-02T22:29:01.180Z,66.20
2023-01-02T22:31:57.711Z,66.00
2023-01-02T22:34:51.801Z,66.10
2023-01-02T22:37:45.632Z,66.30
2023-01-02T22:40:38.854Z,66.20
2023-01-02T22:43:37.924Z,66.20
2023-01-02T22:46:35.601Z,66.30
2023-01-02T22:49:32.340Z,66.80
2023-01-02T22:52:26.836Z,66.40
2023-01-02T22:55:22.218Z,66.40
2023-01-02T22:58:15.835Z,66.40
2023-01-02T23:01:17.227Z,66.30
2023-01-02T23:04:17.123Z,66.30
2023-01-02T23:07:24.813Z,66.50
2023-01-02T23:10:18.587Z,64.80
2023-01-02T23:13:11.473Z,60.40
2023-01-02T23:16:23.020Z,58.90
2023-01-02T23:19:19.113Z,63.80
2023-01-02T23:22:12.526Z,63.20
2023-01-02T23:25:07.555Z,62.30
2023-01-02T23:28:00.518Z,61.10
2023-01-02T23:30:53.243Z,60.00
2023-01-02T23:33:46.677Z,59.00
2023-01-02T23:36:41.229Z,58.10
2023-01-02T23:39:35.653Z,57.20
2023-01-02T23:42:28.891Z,56.70
2023-01-02T23:45:22.376Z,55.90
2023-01-02T23:48:16.388Z,55.30
2023-01-02T23:51:09.992Z,54.60
2023-01-02T23:54:05.913Z,54.10
2023-01-02T23:56:59.734Z,53.70
2023-01-02T23:59:54.684Z,53.20
